This is the latest recevied weather packets stored in our database for station/object K4CRS-13. If no packets are shown the sender has not sent any weather packets the latest 10 day(s).
| Time | Temp. | Humidity | Pressure | Rain* | Wind** | Luminosity | Snow |
|---|---|---|---|---|---|---|---|
| 1777779041 | 11.67° C | 70% | 1053.6 hPa | 0 mm | - | 0 W/m² | - |
| 1777778739 | 11.67° C | 69% | 1053.6 hPa | 0 mm | - | 0 W/m² | - |
| 1777778437 | 11.67° C | 68% | 1053.7 hPa | 0 mm | - | 0 W/m² | - |
| 1777778134 | 11.67° C | 68% | 1053.5 hPa | 0 mm | - | 0 W/m² | - |
| 1777777831 | 11.67° C | 67% | 1053.7 hPa | 0 mm | - | 0 W/m² | - |
| 1777777527 | 11.67° C | 67% | 1053.5 hPa | 0 mm | - | 0 W/m² | - |
| 1777777225 | 11.11° C | 70% | 1053.4 hPa | 0 mm | - | 0 W/m² | - |
| 1777776921 | 10.56° C | 77% | 1053.3 hPa | 0 mm | - | 0 W/m² | - |
| 1777776620 | 11.11° C | 72% | 1053 hPa | 0 mm | - | 0 W/m² | - |
| 1777776315 | 11.67° C | 69% | 1053 hPa | 0 mm | - | 0 W/m² | - |
| 1777776012 | 11.67° C | 69% | 1053 hPa | 0 mm | - | 0 W/m² | - |
| 1777775709 | 11.67° C | 69% | 1052.8 hPa | 0 mm | - | 0 W/m² | - |
| 1777775406 | 12.78° C | 66% | 1052.8 hPa | 0 mm | - | 0 W/m² | - |
| 1777775102 | 12.22° C | 66% | 1052.6 hPa | 0 mm | - | 0 W/m² | - |
| 1777774797 | 12.22° C | 68% | 1052.8 hPa | 0 mm | - | 0 W/m² | - |
| 1777774494 | 12.22° C | 68% | 1052.6 hPa | 0 mm | - | 0 W/m² | - |
| 1777774191 | 12.22° C | 67% | 1052.4 hPa | 0 mm | - | 0 W/m² | - |
| 1777773889 | 12.78° C | 68% | 1052.8 hPa | 0 mm | - | 0 W/m² | - |
| 1777773585 | 12.78° C | 67% | 1052.1 hPa | 0 mm | - | 0 W/m² | - |
| 1777773282 | 12.78° C | 67% | 1052.4 hPa | 0 mm | - | 0 W/m² | - |
| 1777772978 | 12.78° C | 68% | 1052.3 hPa | 0 mm | - | 0 W/m² | - |
| 1777772675 | 12.22° C | 70% | 1052.3 hPa | 0 mm | - | 0 W/m² | - |
| 1777772373 | 12.22° C | 74% | 1052.2 hPa | 0 mm | - | 0 W/m² | - |
| 1777772070 | 12.22° C | 75% | 1052.1 hPa | 0 mm | - | 0 W/m² | - |
| 1777771767 | 12.78° C | 71% | 1052 hPa | 0 mm | - | 0 W/m² | - |
* Rain latest hour (hover to see other rain measurements)
** Current wind speed in m/s (hover to see current wind gust speed)